createdAt,value
2023-04-08T00:00:10.539Z,45.48
2023-04-08T00:02:37.501Z,45.43
2023-04-08T00:05:04.236Z,45.51
2023-04-08T00:07:31.102Z,45.46
2023-04-08T00:09:57.729Z,45.47
2023-04-08T00:12:24.358Z,45.56
2023-04-08T00:14:50.968Z,45.44
2023-04-08T00:17:17.596Z,45.45
2023-04-08T00:19:44.260Z,45.40
2023-04-08T00:22:10.924Z,45.50
2023-04-08T00:24:37.800Z,45.44
2023-04-08T00:27:04.437Z,45.42
2023-04-08T00:29:31.072Z,45.48
2023-04-08T00:31:57.724Z,45.42
2023-04-08T00:34:24.362Z,45.51
2023-04-08T00:36:50.976Z,45.35
2023-04-08T00:39:17.619Z,45.49
2023-04-08T00:41:44.280Z,45.34
2023-04-08T00:44:10.897Z,45.56
2023-04-08T00:46:37.771Z,45.51
2023-04-08T00:49:04.504Z,45.45
2023-04-08T00:51:31.117Z,45.52
2023-04-08T00:53:57.754Z,45.46
2023-04-08T00:56:24.392Z,45.55
2023-04-08T00:58:51.348Z,45.45
2023-04-08T01:01:18.280Z,45.51
2023-04-08T01:03:45.230Z,45.45
2023-04-08T01:06:11.953Z,45.53
2023-04-08T01:08:38.605Z,45.53
2023-04-08T01:11:05.465Z,45.50
2023-04-08T01:13:32.084Z,45.61
2023-04-08T01:15:58.763Z,45.54
2023-04-08T01:18:25.475Z,45.50
2023-04-08T01:20:52.136Z,45.45
2023-04-08T01:23:18.792Z,45.54
2023-04-08T01:25:45.431Z,45.51
2023-04-08T01:28:12.055Z,45.52
2023-04-08T01:30:38.665Z,45.48
2023-04-08T01:33:05.400Z,45.54
2023-04-08T01:35:32.109Z,45.61
2023-04-08T01:37:58.805Z,45.51
2023-04-08T01:40:25.425Z,45.55
2023-04-08T01:42:52.069Z,45.44
2023-04-08T01:45:18.925Z,45.46
2023-04-08T01:47:45.576Z,45.44
2023-04-08T01:50:12.192Z,45.50
2023-04-08T01:52:38.804Z,45.52
2023-04-08T01:55:05.660Z,45.51
2023-04-08T01:57:32.322Z,45.50
2023-04-08T01:59:59.177Z,45.50
2023-04-08T02:02:25.930Z,45.53
2023-04-08T02:04:52.721Z,45.46
2023-04-08T02:07:19.378Z,45.50
2023-04-08T02:09:46.016Z,45.57
2023-04-08T02:12:12.874Z,45.53
2023-04-08T02:14:39.503Z,45.65
2023-04-08T02:17:06.357Z,45.45
2023-04-08T02:19:32.993Z,45.56
2023-04-08T02:21:59.851Z,45.54
2023-04-08T02:24:26.488Z,45.64
2023-04-08T02:26:53.126Z,45.61
2023-04-08T02:29:20.028Z,45.59
2023-04-08T02:31:46.708Z,45.67
2023-04-08T02:34:13.375Z,45.63
2023-04-08T02:36:39.996Z,45.65
2023-04-08T02:39:06.615Z,45.65
2023-04-08T02:41:33.226Z,45.69
2023-04-08T02:43:59.829Z,45.65
2023-04-08T02:46:26.442Z,45.63
2023-04-08T02:48:53.073Z,45.65
2023-04-08T02:51:19.695Z,45.69
2023-04-08T02:53:46.302Z,45.70
2023-04-08T02:56:12.943Z,45.68
2023-04-08T02:58:39.556Z,45.78
2023-04-08T03:01:06.186Z,45.65
2023-04-08T03:03:33.097Z,45.62
2023-04-08T03:05:59.817Z,45.60
2023-04-08T03:08:26.464Z,45.71
2023-04-08T03:10:53.340Z,45.63
2023-04-08T03:13:19.961Z,45.65
2023-04-08T03:15:46.617Z,45.63
2023-04-08T03:18:13.244Z,45.66
2023-04-08T03:20:39.919Z,45.64
2023-04-08T03:23:06.573Z,45.66
2023-04-08T03:25:33.211Z,45.67
2023-04-08T03:27:59.845Z,45.62
2023-04-08T03:30:26.864Z,45.59
2023-04-08T03:32:53.656Z,45.52
2023-04-08T03:35:20.392Z,45.63
2023-04-08T03:37:47.160Z,45.57
2023-04-08T03:40:13.829Z,45.62
2023-04-08T03:42:40.717Z,45.63
2023-04-08T03:45:07.384Z,45.61
2023-04-08T03:47:34.291Z,45.60
2023-04-08T03:50:01.004Z,45.70
2023-04-08T03:52:27.854Z,45.60
2023-04-08T03:54:54.504Z,45.75
2023-04-08T03:57:22.094Z,45.74
2023-04-08T03:59:48.734Z,45.76
2023-04-08T04:02:15.510Z,45.70
2023-04-08T04:04:42.466Z,45.71
2023-04-08T04:07:09.336Z,45.66
2023-04-08T04:09:35.961Z,45.65
2023-04-08T04:12:02.577Z,45.66
2023-04-08T04:14:29.209Z,45.62
2023-04-08T04:16:55.858Z,45.61
2023-04-08T04:19:22.503Z,45.63
2023-04-08T04:21:49.363Z,45.64
2023-04-08T04:24:15.937Z,45.60
2023-04-08T04:26:42.545Z,45.68
2023-04-08T04:31:56.495Z,45.68
2023-04-08T04:34:23.328Z,45.67
2023-04-08T04:36:49.941Z,45.67
2023-04-08T04:39:16.721Z,45.68
2023-04-08T04:41:43.333Z,45.60
2023-04-08T04:44:10.357Z,45.61
2023-04-08T04:46:36.995Z,45.56
2023-04-08T04:49:03.876Z,45.71
2023-04-08T04:51:30.492Z,45.58
2023-04-08T04:53:57.329Z,45.60
2023-04-08T04:56:24.169Z,45.63
2023-04-08T04:58:51.067Z,45.67
2023-04-08T05:01:17.852Z,45.65
2023-04-08T05:03:44.731Z,45.61
2023-04-08T05:06:11.408Z,45.62
2023-04-08T05:08:38.049Z,45.64
2023-04-08T05:11:04.690Z,45.73
2023-04-08T05:13:31.335Z,45.68
2023-04-08T05:15:57.996Z,45.72
2023-04-08T05:18:24.878Z,45.75
2023-04-08T05:20:51.516Z,45.69
2023-04-08T05:23:18.491Z,45.64
2023-04-08T05:25:45.106Z,45.62
2023-04-08T05:28:11.714Z,45.73
2023-04-08T05:30:38.327Z,45.75
2023-04-08T05:33:05.033Z,45.75
2023-04-08T05:35:31.726Z,45.62
2023-04-08T05:37:58.365Z,45.66
2023-04-08T05:40:25.003Z,45.64
2023-04-08T05:42:51.859Z,45.66
2023-04-08T05:45:18.490Z,45.65
2023-04-08T05:47:45.198Z,45.70
2023-04-08T05:50:11.887Z,45.64
2023-04-08T05:52:38.507Z,45.66
2023-04-08T05:55:05.140Z,45.66
2023-04-08T05:57:31.769Z,45.56
2023-04-08T05:59:58.389Z,45.63
2023-04-08T06:02:25.186Z,45.66
2023-04-08T06:04:51.952Z,45.65
2023-04-08T06:07:18.602Z,45.68
2023-04-08T06:09:45.481Z,45.66
2023-04-08T06:12:12.156Z,45.65
2023-04-08T06:14:38.811Z,45.67
2023-04-08T06:17:05.551Z,45.69
2023-04-08T06:19:32.297Z,45.63
2023-04-08T06:21:58.952Z,45.74
2023-04-08T06:24:25.588Z,45.70
2023-04-08T06:26:52.212Z,45.66
2023-04-08T06:29:18.863Z,45.70
2023-04-08T06:31:45.754Z,45.69
2023-04-08T06:34:12.417Z,45.76
2023-04-08T06:36:39.038Z,45.59
2023-04-08T06:39:05.874Z,45.69
2023-04-08T06:41:32.544Z,45.67
2023-04-08T06:43:59.155Z,45.76
2023-04-08T06:46:25.848Z,45.67
2023-04-08T06:48:52.938Z,45.72
2023-04-08T06:51:19.683Z,45.72
2023-04-08T06:53:46.321Z,45.69
2023-04-08T06:56:12.932Z,45.70
2023-04-08T06:58:39.504Z,45.64
2023-04-08T07:01:06.146Z,45.70
2023-04-08T07:03:32.871Z,45.63
2023-04-08T07:05:59.558Z,45.66
2023-04-08T07:08:26.180Z,45.67
2023-04-08T07:10:52.811Z,45.60
2023-04-08T07:13:19.428Z,45.69
2023-04-08T07:15:46.265Z,45.59
2023-04-08T07:18:12.909Z,45.59
2023-04-08T07:20:39.541Z,45.57
2023-04-08T07:23:06.159Z,45.64
2023-04-08T07:25:32.995Z,45.58
2023-04-08T07:27:59.612Z,45.62
2023-04-08T07:30:26.211Z,45.62
2023-04-08T07:32:53.071Z,45.62
2023-04-08T07:35:19.783Z,45.66
2023-04-08T07:37:46.454Z,45.56
2023-04-08T07:40:13.094Z,45.63
2023-04-08T07:42:40.884Z,45.59
2023-04-08T07:45:08.574Z,45.62
2023-04-08T07:47:36.030Z,45.67
2023-04-08T07:50:02.727Z,45.58
2023-04-08T07:52:29.392Z,45.61
2023-04-08T07:54:56.056Z,45.59
2023-04-08T07:57:22.825Z,45.68
2023-04-08T07:59:49.489Z,45.64
2023-04-08T08:02:16.226Z,45.66
2023-04-08T08:04:43.055Z,45.66
2023-04-08T08:07:09.756Z,45.67
2023-04-08T08:09:36.386Z,45.70
2023-04-08T08:12:03.005Z,45.61
2023-04-08T08:14:29.637Z,45.62
2023-04-08T08:16:56.275Z,45.59
2023-04-08T08:19:23.215Z,45.65
2023-04-08T08:21:49.828Z,45.53
2023-04-08T08:24:16.452Z,45.64
2023-04-08T08:26:43.288Z,45.66
2023-04-08T08:29:09.920Z,45.56
2023-04-08T08:31:36.605Z,45.60
2023-04-08T08:34:03.262Z,45.56
2023-04-08T08:36:29.887Z,45.59
2023-04-08T08:38:56.848Z,45.56
2023-04-08T08:41:23.490Z,45.56
2023-04-08T08:43:50.394Z,45.56
2023-04-08T08:46:17.284Z,45.53
2023-04-08T08:48:43.978Z,45.57
2023-04-08T08:51:10.852Z,45.53
2023-04-08T08:53:37.482Z,45.51
2023-04-08T08:58:33.842Z,45.50
2023-04-08T09:01:01.147Z,45.52
2023-04-08T09:03:28.238Z,45.49
2023-04-08T09:05:55.672Z,45.55
2023-04-08T09:08:22.303Z,45.61
2023-04-08T09:10:48.910Z,45.49
2023-04-08T09:13:15.538Z,45.46
2023-04-08T09:15:42.158Z,45.54
2023-04-08T09:18:08.858Z,45.49
2023-04-08T09:20:35.719Z,45.56
2023-04-08T09:23:02.410Z,45.60
2023-04-08T09:25:29.054Z,45.64
2023-04-08T09:27:55.960Z,45.57
2023-04-08T09:30:22.586Z,45.52
2023-04-08T09:32:49.259Z,45.60
2023-04-08T09:35:15.916Z,45.59
2023-04-08T09:37:42.572Z,45.60
2023-04-08T09:40:09.215Z,45.60
2023-04-08T09:42:35.865Z,45.63
2023-04-08T09:45:02.522Z,45.57
2023-04-08T09:47:29.198Z,45.65
2023-04-08T09:49:56.062Z,45.60
2023-04-08T09:52:22.692Z,45.52
2023-04-08T09:54:49.329Z,45.59
2023-04-08T09:57:15.976Z,45.58
2023-04-08T09:59:42.621Z,45.59
2023-04-08T10:02:09.570Z,45.58
2023-04-08T10:04:36.374Z,45.64
2023-04-08T10:07:03.036Z,45.60
2023-04-08T10:09:29.711Z,45.61
2023-04-08T10:11:56.348Z,45.68
2023-04-08T10:14:23.193Z,45.59
2023-04-08T10:16:50.100Z,45.57
2023-04-08T10:19:16.831Z,45.59
2023-04-08T10:21:43.476Z,45.60
2023-04-08T10:24:10.309Z,45.61
2023-04-08T10:26:36.910Z,45.69
2023-04-08T10:29:03.542Z,45.71
2023-04-08T10:31:30.212Z,45.61
2023-04-08T10:33:56.876Z,45.64
2023-04-08T10:36:23.505Z,45.62
2023-04-08T10:38:50.340Z,45.63
2023-04-08T10:41:16.980Z,45.50
2023-04-08T10:43:43.618Z,45.55
2023-04-08T10:46:10.520Z,45.64
2023-04-08T10:48:37.506Z,45.63
2023-04-08T10:51:04.160Z,45.57
2023-04-08T10:53:30.794Z,45.55
2023-04-08T10:55:57.415Z,45.58
2023-04-08T10:58:24.052Z,45.57
2023-04-08T11:00:50.671Z,45.69
2023-04-08T11:03:17.420Z,45.61
2023-04-08T11:05:44.174Z,45.62
2023-04-08T11:08:11.034Z,45.63
2023-04-08T11:10:37.697Z,45.64
2023-04-08T11:13:04.621Z,45.62
2023-04-08T11:15:31.551Z,45.56
2023-04-08T11:17:58.288Z,45.66
2023-04-08T11:20:24.918Z,45.61
2023-04-08T11:22:51.539Z,45.65
2023-04-08T11:25:18.145Z,45.57
2023-04-08T11:27:44.777Z,45.61
2023-04-08T11:30:11.423Z,45.63
2023-04-08T11:32:38.291Z,45.63
2023-04-08T11:35:04.925Z,45.64
2023-04-08T11:37:31.796Z,45.57
2023-04-08T11:39:58.451Z,45.64
2023-04-08T11:42:25.093Z,45.52
2023-04-08T11:44:51.732Z,45.66
2023-04-08T11:47:18.366Z,45.59
2023-04-08T11:49:45.228Z,45.62
2023-04-08T11:52:11.859Z,45.59
2023-04-08T11:54:38.506Z,45.55
2023-04-08T11:57:05.117Z,45.57
2023-04-08T11:59:31.757Z,45.55
2023-04-08T12:01:58.426Z,45.64
2023-04-08T12:04:25.652Z,45.65
2023-04-08T12:06:52.496Z,45.65
2023-04-08T12:09:19.177Z,45.69
2023-04-08T12:11:45.806Z,45.65
2023-04-08T12:14:12.653Z,45.66
2023-04-08T12:16:39.455Z,45.66
2023-04-08T12:19:06.183Z,45.70
2023-04-08T12:21:33.027Z,45.75
2023-04-08T12:23:59.675Z,45.74
2023-04-08T12:26:26.788Z,45.83
2023-04-08T12:28:53.402Z,45.74
2023-04-08T12:31:20.060Z,45.74
2023-04-08T12:33:46.698Z,45.74
2023-04-08T12:36:13.897Z,45.73
2023-04-08T12:38:40.578Z,45.74
2023-04-08T12:41:07.422Z,45.70
2023-04-08T12:43:34.086Z,45.74
2023-04-08T12:46:00.722Z,45.64
2023-04-08T12:48:28.201Z,45.67
2023-04-08T12:50:54.823Z,45.61
2023-04-08T12:53:21.455Z,45.60
2023-04-08T12:55:49.264Z,45.67
2023-04-08T12:58:16.084Z,45.65
2023-04-08T13:00:42.743Z,45.66
2023-04-08T13:03:09.493Z,45.61
2023-04-08T13:05:43.266Z,45.57
2023-04-08T13:08:10.569Z,45.59
2023-04-08T13:10:37.212Z,45.59
2023-04-08T13:13:04.042Z,45.60
2023-04-08T13:15:30.699Z,45.59
2023-04-08T13:17:57.440Z,45.62
2023-04-08T13:20:24.540Z,45.61
2023-04-08T13:22:51.153Z,45.64
2023-04-08T13:25:17.768Z,45.66
2023-04-08T13:27:45.735Z,45.54
2023-04-08T13:30:12.477Z,45.64
2023-04-08T13:32:39.163Z,45.64
2023-04-08T13:35:05.881Z,45.65
2023-04-08T13:37:32.523Z,45.60
2023-04-08T13:39:59.135Z,45.67
2023-04-08T13:42:25.751Z,45.65
2023-04-08T13:44:52.363Z,45.62
2023-04-08T13:47:18.986Z,45.70
2023-04-08T13:49:45.835Z,45.64
2023-04-08T13:52:12.466Z,45.65
2023-04-08T13:54:39.110Z,45.74
2023-04-08T13:57:05.738Z,45.67
2023-04-08T13:59:32.376Z,45.75
2023-04-08T14:01:59.134Z,45.74
2023-04-08T14:04:25.852Z,45.77
2023-04-08T14:06:52.500Z,45.68
2023-04-08T14:09:19.122Z,45.75
2023-04-08T14:11:45.738Z,45.76
2023-04-08T14:14:12.377Z,45.75
2023-04-08T14:16:39.030Z,45.75
2023-04-08T14:19:05.676Z,45.74
2023-04-08T14:21:32.519Z,45.78
2023-04-08T14:24:01.342Z,45.77
2023-04-08T14:26:29.224Z,45.72
2023-04-08T14:28:55.864Z,45.78
2023-04-08T14:31:22.522Z,45.76
2023-04-08T14:33:49.228Z,45.72
2023-04-08T14:36:15.883Z,45.76
2023-04-08T14:38:42.510Z,45.80
2023-04-08T14:41:09.155Z,45.81
2023-04-08T14:43:36.005Z,45.82
2023-04-08T14:46:02.659Z,45.80
2023-04-08T14:48:29.555Z,45.85
2023-04-08T14:50:56.176Z,45.82
2023-04-08T14:53:22.776Z,45.90
2023-04-08T14:55:49.440Z,45.81
2023-04-08T14:58:16.288Z,45.89
2023-04-08T15:00:42.909Z,45.84
2023-04-08T15:03:09.600Z,45.89
2023-04-08T15:05:36.765Z,45.92
2023-04-08T15:08:03.571Z,45.90
2023-04-08T15:10:30.231Z,45.96
2023-04-08T15:12:57.111Z,45.84
2023-04-08T15:15:23.753Z,45.85
2023-04-08T15:17:52.098Z,45.87
2023-04-08T15:20:19.206Z,45.88
2023-04-08T15:22:45.836Z,45.88
2023-04-08T15:25:12.694Z,45.82
2023-04-08T15:27:39.337Z,45.90
2023-04-08T15:30:06.431Z,45.90
2023-04-08T15:32:33.083Z,45.89
2023-04-08T15:34:59.910Z,45.83
2023-04-08T15:37:26.518Z,45.85
2023-04-08T15:39:53.164Z,45.89
2023-04-08T15:42:19.784Z,45.84
2023-04-08T15:44:46.394Z,45.88
2023-04-08T15:47:13.035Z,45.90
2023-04-08T15:49:39.905Z,45.88
2023-04-08T15:52:06.750Z,45.87
2023-04-08T15:54:33.595Z,45.96
2023-04-08T15:57:00.463Z,45.94
2023-04-08T15:59:27.120Z,45.95
2023-04-08T16:01:53.898Z,45.96
2023-04-08T16:04:20.798Z,45.97
2023-04-08T16:06:47.661Z,45.93
2023-04-08T16:09:14.519Z,45.92
2023-04-08T16:11:41.175Z,45.98
2023-04-08T16:14:08.033Z,45.98
2023-04-08T16:16:34.922Z,46.00
2023-04-08T16:19:01.536Z,45.98
2023-04-08T16:21:28.192Z,46.05
2023-04-08T16:23:54.823Z,46.07
2023-04-08T16:26:21.463Z,46.10
2023-04-08T16:28:48.299Z,46.08
2023-04-08T16:31:14.984Z,46.13
2023-04-08T16:33:41.815Z,46.11
2023-04-08T16:36:08.496Z,46.11
2023-04-08T16:38:35.308Z,46.15
2023-04-08T16:41:01.960Z,46.09
2023-04-08T16:43:28.830Z,46.23
2023-04-08T16:45:55.498Z,46.11
2023-04-08T16:48:22.161Z,46.17
2023-04-08T16:50:48.767Z,46.25
2023-04-08T16:53:15.406Z,46.23
2023-04-08T16:55:42.022Z,46.25
2023-04-08T16:58:08.650Z,46.28
2023-04-08T17:00:35.265Z,46.30
2023-04-08T17:03:02.041Z,46.22
2023-04-08T17:05:28.866Z,46.27
2023-04-08T17:07:55.526Z,46.22
2023-04-08T17:10:22.178Z,46.23
2023-04-08T17:12:48.830Z,46.31
2023-04-08T17:15:15.486Z,46.26
2023-04-08T17:17:42.195Z,46.27
2023-04-08T17:20:08.889Z,46.23
2023-04-08T17:22:35.723Z,46.29
2023-04-08T17:25:02.352Z,46.32
2023-04-08T17:27:29.226Z,46.37
2023-04-08T17:29:55.885Z,46.35
2023-04-08T17:32:22.544Z,46.30
2023-04-08T17:34:49.256Z,46.45
2023-04-08T17:37:15.899Z,46.39
2023-04-08T17:39:42.538Z,46.37
2023-04-08T17:42:09.196Z,46.32
2023-04-08T17:44:36.053Z,46.35
2023-04-08T17:47:02.717Z,46.43
2023-04-08T17:49:29.574Z,46.46
2023-04-08T17:51:56.227Z,46.43
2023-04-08T17:54:23.090Z,46.40
2023-04-08T17:56:49.730Z,46.50
2023-04-08T17:59:16.444Z,46.42
2023-04-08T18:01:43.867Z,46.45
2023-04-08T18:04:10.680Z,46.39
2023-04-08T18:06:37.883Z,46.47
2023-04-08T18:09:04.740Z,46.51
2023-04-08T18:11:31.438Z,46.46
2023-04-08T18:13:58.305Z,46.46
2023-04-08T18:16:24.996Z,46.39
2023-04-08T18:18:54.464Z,46.57
2023-04-08T18:21:21.097Z,46.44
2023-04-08T18:23:47.948Z,46.51
2023-04-08T18:26:14.627Z,46.42
2023-04-08T18:28:41.356Z,46.47
2023-04-08T18:31:08.289Z,46.47
2023-04-08T18:36:22.301Z,46.62
2023-04-08T18:38:48.986Z,46.52
2023-04-08T18:41:15.616Z,46.58
2023-04-08T18:43:42.231Z,46.46
2023-04-08T18:46:09.164Z,46.53
2023-04-08T18:48:35.837Z,46.54
2023-04-08T18:51:02.457Z,46.57
2023-04-08T18:53:29.103Z,46.61
2023-04-08T18:55:55.755Z,46.62
2023-04-08T18:58:22.406Z,46.59
2023-04-08T19:00:49.280Z,46.58
2023-04-08T19:03:15.982Z,46.58
2023-04-08T19:05:42.871Z,46.47
2023-04-08T19:08:09.491Z,46.56
2023-04-08T19:10:36.135Z,46.69
2023-04-08T19:13:02.758Z,46.54
2023-04-08T19:15:29.885Z,46.69
2023-04-08T19:17:56.765Z,46.57
2023-04-08T19:20:23.490Z,46.60
2023-04-08T19:22:50.108Z,46.62
2023-04-08T19:25:16.762Z,46.57
2023-04-08T19:27:43.599Z,46.68
2023-04-08T19:30:10.279Z,46.74
2023-04-08T19:32:36.923Z,46.55
2023-04-08T19:35:03.571Z,46.70
2023-04-08T19:37:30.208Z,46.69
2023-04-08T19:39:56.836Z,46.74
2023-04-08T19:42:23.443Z,46.75
2023-04-08T19:44:50.079Z,46.78
2023-04-08T19:47:16.711Z,46.81
2023-04-08T19:49:43.320Z,46.67
2023-04-08T19:52:09.938Z,46.73
2023-04-08T19:54:39.428Z,46.76
2023-04-08T19:57:06.083Z,46.81
2023-04-08T19:59:32.737Z,46.73
2023-04-08T20:01:59.425Z,46.80
2023-04-08T20:04:26.261Z,46.81
2023-04-08T20:06:52.985Z,46.83
2023-04-08T20:09:19.642Z,46.88
2023-04-08T20:11:46.289Z,46.83
2023-04-08T20:14:13.133Z,46.85
2023-04-08T20:16:39.984Z,46.75
2023-04-08T20:19:06.608Z,46.85
2023-04-08T20:21:33.265Z,46.75
2023-04-08T20:23:59.879Z,46.84
2023-04-08T20:26:26.557Z,46.78
2023-04-08T20:28:54.031Z,46.84
2023-04-08T20:31:22.579Z,46.82
2023-04-08T20:33:49.231Z,46.80
2023-04-08T20:36:15.855Z,46.85
2023-04-08T20:38:43.289Z,46.83
2023-04-08T20:41:09.936Z,46.88
2023-04-08T20:43:36.817Z,46.88
2023-04-08T20:46:03.501Z,46.88
2023-04-08T20:48:30.120Z,46.80
2023-04-08T20:50:56.960Z,46.84
2023-04-08T20:53:23.607Z,46.83
2023-04-08T20:55:50.470Z,46.83
2023-04-08T20:58:17.084Z,46.86
2023-04-08T21:00:43.924Z,46.90
2023-04-08T21:03:10.592Z,46.92
2023-04-08T21:05:37.466Z,46.90
2023-04-08T21:08:04.085Z,46.92
2023-04-08T21:10:30.911Z,46.85
2023-04-08T21:12:57.738Z,46.96
2023-04-08T21:15:24.363Z,46.82
2023-04-08T21:17:51.065Z,46.97
2023-04-08T21:20:18.086Z,46.83
2023-04-08T21:22:44.925Z,46.92
2023-04-08T21:25:11.555Z,46.87
2023-04-08T21:27:38.190Z,46.87
2023-04-08T21:30:04.813Z,46.77
2023-04-08T21:32:32.678Z,46.83
2023-04-08T21:34:59.320Z,46.85
2023-04-08T21:37:25.940Z,46.92
2023-04-08T21:39:52.806Z,46.90
2023-04-08T21:42:19.454Z,46.89
2023-04-08T21:44:46.315Z,46.78
2023-04-08T21:47:12.947Z,46.80
2023-04-08T21:49:39.588Z,46.89
2023-04-08T21:52:06.209Z,46.86
2023-04-08T21:54:32.849Z,46.83
2023-04-08T21:56:59.697Z,46.88
2023-04-08T21:59:26.300Z,46.86
2023-04-08T22:01:52.966Z,46.88
2023-04-08T22:04:19.639Z,46.86
2023-04-08T22:06:46.363Z,46.97
2023-04-08T22:09:13.209Z,46.87
2023-04-08T22:11:39.840Z,46.96
2023-04-08T22:14:06.695Z,46.85
2023-04-08T22:16:33.384Z,46.87
2023-04-08T22:19:00.090Z,46.91
2023-04-08T22:21:26.717Z,46.93
2023-04-08T22:23:53.347Z,46.92
2023-04-08T22:26:20.008Z,46.94
2023-04-08T22:28:46.666Z,46.83
2023-04-08T22:31:13.353Z,46.85
2023-04-08T22:33:40.231Z,46.95
2023-04-08T22:36:06.893Z,46.92
2023-04-08T22:38:33.791Z,46.96
2023-04-08T22:41:00.642Z,46.84
2023-04-08T22:43:27.271Z,46.93
2023-04-08T22:45:53.952Z,46.84
2023-04-08T22:48:20.845Z,46.89
2023-04-08T22:50:47.454Z,46.88
2023-04-08T22:53:14.273Z,46.89
2023-04-08T22:55:41.106Z,46.88
2023-04-08T22:58:07.753Z,46.92
2023-04-08T23:00:34.653Z,46.95
2023-04-08T23:03:01.823Z,46.87
2023-04-08T23:05:28.793Z,46.95
2023-04-08T23:07:55.421Z,46.91
2023-04-08T23:10:22.270Z,46.89
2023-04-08T23:12:49.090Z,46.87
2023-04-08T23:15:15.947Z,46.91
2023-04-08T23:17:42.803Z,46.88
2023-04-08T23:20:09.659Z,46.85
2023-04-08T23:22:36.303Z,46.86
2023-04-08T23:25:03.813Z,46.95
2023-04-08T23:27:30.443Z,46.93
2023-04-08T23:29:57.091Z,46.94
2023-04-08T23:32:23.739Z,46.89
2023-04-08T23:34:50.396Z,46.99
2023-04-08T23:37:17.101Z,46.93
2023-04-08T23:39:43.746Z,46.94
2023-04-08T23:42:10.596Z,46.90
2023-04-08T23:44:37.224Z,46.96
2023-04-08T23:47:04.050Z,46.94
2023-04-08T23:49:30.662Z,46.96
2023-04-08T23:51:57.898Z,46.86
2023-04-08T23:54:24.513Z,46.88
2023-04-08T23:56:51.381Z,46.90
2023-04-08T23:59:18.022Z,46.91
